Albuquerque, NM (87106)

12:21 PM MDT on May 29, 2015 (GMT -0600)
UNM | | Change Station
CLOSE
Current Station
Personal Weather Station
Location: Albuquerque, NM
Elevation: 5280 ft
Nearby Weather Stations

Elev 5280 ft 35.09 °N, 106.62 °W | Updated 3 seconds ago

Mostly Cloudy
Mostly Cloudy
79.8 °F
Feels Like 78 °F
N
1.0
Wind Variable Wind from NE
Gusts 8.0 mph

Today
High -- | Low -- °F
--% Chance of Precip.
Yesterday
High -- | Low -- °F
Precip. -- in
5:54 AM 8:13 PM
Waxing Gibbous, 85% visible
Pressure 29.93 in
Visibility 10.0 miles
Clouds Few 9000 ft
Mostly Cloudy 18000 ft
Mostly Cloudy 28000 ft
Heat Index 78 °F
Dew Point 34 °F
Humidity 19%
Rainfall 0.00 in
Snow Depth Not available.
UV 7 out of 12
Pollen 5.10 out of 12
Air Quality Not available.
Flu Activity Local Activity
METAR KABQ 291752Z 35007KT 330V050 10SM FEW090 BKN180 BKN280 24/02 A3017 RMK AO2 SLP135 T02440017 10244 20156 58001

More Conditions Fewer Conditions

Pressure 29.93 in
Visibility 10.0 miles
Clouds Few 9000 ft
Mostly Cloudy 18000 ft
Mostly Cloudy 28000 ft
Heat Index 78 °F
Dew Point 34 °F
Humidity 19%
Rainfall 0.00 in
Snow Depth Not available.
UV 7 out of 12
Pollen 5.10 out of 12
Air Quality Not available.
Flu Activity Local Activity
METAR KABQ 291752Z 35007KT 330V050 10SM FEW090 BKN180 BKN280 24/02 A3017 RMK AO2 SLP135 T02440017 10244 20156 58001

More Conditions Fewer Conditions

10-Day Weather Forecast

Almanac

Astronomy

May. 29, 2015 Rise Set
Actual Time
Civil Twilight
Nautical Twilight
Astronomical Twilight
Moon
Length of Visible Light
Length of Day
Tomorrow will be .
, % of the Moon is Illuminated

Today's Extremes

State Highs State Lows

Community

WunderPhotos

Upload Photos

1,825,321 photos uploaded!

WunderBlogs® & News

Nearby

Air Quality

  Air Quality AQ Index Pollutant
Not available.

Snow Depth

Station Depth Elevation

Earthquake Activity

City Distance Mag. Time & Date
Minimum magnitude displayed is 2.5.

Coastal Water Temperatures

Place Temperature

Stations

Nearby Weather Stations

Station Location Temp. Windchill Dew Point Humidity Wind Precip. Elev Updated Type